x

Portland 12 Nm Southeast Of Portland,me (44007) Wave Buoy

6:50pm - Fri 28th Apr 2017 All times are EDT. -4 hours from GMT.

  • Sig Wave height 3.9ft
  • Swell Direction
  • Peak Period 8s
  • Average Period 6s
  • Wind
    4mph
  • Sea Temp 48°f
  • 空気 Temp 47°f
  • Sea Pressure 1012.8mb
  • Portland 12 Nm Southeast Of Portland,me
  • Portland 12 Nm Southeast Of Portland,me

More Historic Weather Station data

Upgrade to MSW Pro to gain access to the past 30 days of data for over 8000 Wavebouys and Weather Stations around the globe.

Join Pro

Comparision Forecast

View Surf forecast
   
Fri 04/28 6:50pm 4ft 8s 6s 4
mph
1012.8mb 48f 47f
5:50pm 3.5ft 8s 6s 4 7 mph 1012.7mb 48f 48f
4:50pm 4ft 9s 7s 4 7 mph 1013mb 47f 48f
3:50pm 4.5ft 9s 7s 4 7 mph 1012.5mb 47f 48f
2:50pm 3.5ft 10s 6s 2 4 mph 1013.6mb 47f 47f
1:50pm 4ft 10s 6s 4 7 mph 1013.5mb 46f 47f
12:50pm 4.5ft 9s 7s 7
mph
1013.9mb 45f 47f
11:50am 4.5ft 10s 7s  -  2 mph 1014mb 45f 47f
10:50am 4.5ft 10s 7s 2 4 mph 1014.3mb 45f 47f
9:50am 5.5ft 9s 7s 7 9 mph 1014.1mb 44f 47f
7:50am 5ft 9s  -  4
mph
1014.8mb 45f 46f
6:50am 5ft 9s 8s 4 7 mph 1014.5mb 45f 46f
5:50am 5ft 9s 7s 4
mph
1014.1mb 44f 46f
4:50am 4.5ft 9s 7s 9 11 mph 1013.8mb 44f 46f
3:50am 4.5ft 10s 7s 7
mph
1013.6mb 44f 46f
2:50am 4.5ft 10s 7s 7
mph
1013.4mb 44f 45f
1:50am 4.5ft 10s 7s 7
mph
1013.4mb 43f 45f
12:50am 5ft 10s 7s 4
mph
1013.7mb 44f 45f
Thu 04/27 11:50pm 5ft 10s 7s 4
mph
1013.9mb 44f 45f
10:50pm 5ft 10s 7s 4
mph
1014.3mb 44f 44f
9:50pm 5.5ft 8s 7s 2 4 mph 1014.3mb 44f 45f
7:50pm 6ft 10s 8s 2 4 mph 1013.7mb 44f 45f
6:50pm 5.5ft 10s 7s 4 7 mph 1013.4mb 44f 45f
5:50pm 5ft 10s 7s 2 4 mph 1013.5mb 44f 46f
4:50pm 5ft 10s 7s 4
mph
1013.3mb 44f 47f
3:50pm 6ft 10s 8s 7 11 mph 1013.2mb 44f 46f
2:50pm 5ft 11s 7s 13 18 mph 1013mb 44f 45f
1:50pm 5ft 11s 7s 11 13 mph 1013.1mb 44f 46f
12:50pm 5ft 10s 7s 9
mph
1013.5mb 44f 45f
11:50am 5.5ft 10s 6s 9
mph
1013.8mb 43f 46f
10:50am 6ft 10s 7s 7 9 mph 1013.5mb 43f 45f
9:50am 6ft 8s 7s 13 16 mph 1012.7mb 43f 44f
8:50am 7ft 10s 7s 11 13 mph 1013.5mb 43f 45f
7:50am 7.5ft 9s 7s 9 11 mph 1013.3mb 43f 44f
6:50am 7.5ft 10s 7s 9 11 mph 1012.7mb 43f 44f
5:50am 7ft 10s 7s 9 11 mph 1012.3mb 43f 44f
4:50am 7ft 11s 7s 9 11 mph 1011.9mb 43f 44f
3:50am 7ft 10s 7s 9 11 mph 1011.2mb 43f 44f
2:50am 7ft 11s 7s 11
mph
1011.2mb 43f 45f
1:50am 6ft 11s 7s 9 11 mph 1011.6mb 43f 45f
12:50am 6ft 7s 6s 7 9 mph 1011.7mb 44f 45f
Wed 04/26 11:50pm 6ft 8s 6s 7
mph
1011.7mb 43f 45f
10:50pm 6ft 7s 6s 7 9 mph 1011.4mb 43f 47f
9:50pm 6ft 8s 6s 7 9 mph 1011.8mb 43f 47f
7:50pm 6ft 7s 6s 9 11 mph 1012.5mb 44f 47f
6:50pm 6ft 6s 6s 9
mph
1012.5mb 44f 47f
5:50pm 6ft 7s 6s 7 9 mph 1012.5mb 44f 48f
4:50pm 6ft 7s 6s 2 4 mph 1012.3mb 44f 51f
3:50pm 6ft 6s 6s 2 4 mph 1012.4mb 44f 48f
2:50pm 6ft 7s 6s 7 11 mph 1012.8mb 44f 50f
1:50pm 5.5ft 7s 6s 4 7 mph 1013.2mb 44f 47f
12:50pm 5ft 7s 6s 11 16 mph 1013.3mb 44f 49f
11:50am 5ft 7s 6s 7 9 mph 1014mb 43f 46f
10:50am 5ft 7s 6s 13 18 mph 1014.2mb 43f 46f
9:50am 5.5ft 7s 6s 16 18 mph 1015mb 42f 45f
8:50am 5ft 7s 6s 11 13 mph 1015.9mb 43f 44f
7:50am 5.5ft 7s 6s 13 16 mph 1015.9mb 43f 45f
6:50am 6ft 7s 6s 16 18 mph 1016mb 43f 44f
5:50am 5.5ft 8s 6s 13 16 mph 1016.5mb 43f 45f
4:50am 6ft 7s 5s 13 16 mph 1017.1mb 43f 44f
3:50am 6ft 7s 6s 11 13 mph 1017.9mb 43f 44f
2:50am 5.5ft 7s 5s 16 20 mph 1017.7mb 43f 44f
1:50am 5.5ft 6s 5s 20 22 mph 1018.2mb 44f 43f
12:50am 5.5ft 6s 5s 16 20 mph 1019.6mb 44f 44f
Tue 04/25 11:50pm 5ft 6s 5s 18 22 mph 1020.5mb 44f 43f
10:50pm 5ft 6s 5s 20 25 mph 1021.4mb 44f 42f
9:50pm 4.5ft 6s 5s 20 22 mph 1022.8mb 44f 42f
8:50pm 4ft 5s 5s 18 22 mph 1023.6mb 44f 43f
7:50pm 4ft 6s 4s 18 20 mph 1024.4mb 44f 43f
6:50pm 4.5ft 5s 4s 20 25 mph 1024.6mb 44f 43f
5:50pm 4.5ft 5s 4s 20 27 mph 1025.3mb 44f 42f
4:50pm 4.5ft 5s 4s 25 29 mph 1025.1mb 44f 42f
3:50pm 4ft 5s 4s 20 25 mph 1026.4mb 44f 42f
2:50pm 4.5ft 5s 4s 22 25 mph 1027mb 44f 43f
1:50pm 4.5ft 5s 4s 25 27 mph 1027mb 44f 43f
12:50pm 4ft 5s 4s 25 31 mph 1027.3mb 44f 43f
11:50am 3.5ft 4s 4s 22 27 mph 1027.5mb 44f 43f
10:50am 3.5ft 4s 4s 18 22 mph 1028.4mb 45f 42f
9:50am 3ft 4s 4s 20 22 mph 1028mb 45f 42f
8:50am 2.5ft 11s 4s 20 25 mph 1027.7mb 45f 42f
7:50am 2.5ft 14s 4s 18 20 mph 1027.8mb 45f 42f
6:50am 2.5ft 9s  -  16 18 mph 1026.7mb 45f 42f
5:50am 2.5ft 9s 5s 11 16 mph 1026mb 45f 43f
4:50am 2.5ft 14s 4s 13 16 mph 1025.5mb 45f 44f
3:50am 2.5ft 10s 5s 13 16 mph 1025.3mb 45f 45f
2:50am 2ft 10s 6s 11 13 mph 1025.1mb 46f 45f
1:50am 2ft 13s 6s 9
mph
1024.8mb 46f 45f
12:50am 2ft 14s 6s 7 9 mph 1024.6mb 46f 45f